Weather observations for the past three days for
La Grande/Union County Airport
Metric (Imperial)
Date Time (pdt) Wind (kph) Vis. (km) Weather Sky Cond. Temperature (ºC) Relative Humidity Wind Chill (°C) Heat Index (°C) Pressure Precipitation (cm)
Air Dwpt 6 hour altimeter (cm) sea level (mb) 1 hr 3 hr 6 hr
Max. Min.
08 09:56 E 6 16.09 Fair CLR 13.9 1.7 44% 76.33 1017.5
08 08:56 Calm 16.09 Fair CLR 11.1 1.7 53% 76.33 1017.6
08 07:56 S 6 16.09 Fair CLR 8.9 1.7 61% 76.35 1017.7
08 06:56 Calm 16.09 Fair CLR 5 1.1 76% 76.35 1017.9
08 05:56 Calm 16.09 Fair CLR 2.2 0 86% 76.3 1017.4
08 04:56 Calm 16.09 Fair CLR 3.3 0.6 12.2 1.7 83% 76.28 1016.8
08 03:56 W 6 16.09 Fair CLR 4.4 0.6 77% 76.25 1016.3
08 02:56 NE 6 16.09 Fair CLR 3.3 -0.6 76% 76.25 1016.4
08 01:56 Calm 16.09 Fair CLR 5 0 70% 76.25 1016.3
08 00:56 Calm 16.09 Fair CLR 7.8 1.1 63% 76.23 1016.0
07 22:56 Calm 16.09 Fair CLR 11.1 1.1 22.8 10.6 50% 76.2 1015.3
07 21:56 SW 7 16.09 Fair CLR 12.2 1.1 47% 76.17 1015.1
07 20:56 W 11 16.09 Fair CLR 15 0.6 38% 76.17 1015.0
07 19:56 W 7 16.09 Fair CLR 17.2 1.1 34% 76.12 1014.2
07 18:56 NW 13 16.09 Fair CLR 20.6 1.7 29% 76.1 1013.8
07 17:56 NW 15 16.09 Fair CLR 22.2 2.2 27% 76.1 1013.8
07 16:56 W 19 16.09 Fair CLR 23.3 1.7 23.9 18.9 24% 76.1 1013.6
07 15:56 NW 22 G 30 16.09 Fair CLR 23.3 2.2 25% 76.1 1013.7
07 14:56 NW 22 G 31 16.09 Fair CLR 22.8 3.3 28% 76.12 1014.2
07 13:56 NW 13 16.09 Fair CLR 21.7 3.9 31% 76.17 1014.7
07 12:56 N 13 16.09 Fair CLR 20.6 5 36% 76.23 1015.3
07 11:56 N 20 G 26 16.09 Fair CLR 20 4.4 36% 76.25 1015.8
07 10:56 N 17 G 26 16.09 Fair CLR 18.9 3.3 19.4 10 36% 76.25 1015.8
07 09:56 NW 9 16.09 Fair CLR 17.8 3.9 40% 76.28 1016.0
07 08:56 NW 15 16.09 Fair CLR 15.6 2.8 42% 76.3 1016.3
07 07:56 N 13 16.09 Fair CLR 15 2.8 44% 76.3 1016.3
07 06:56 N 13 16.09 Fair CLR 12.8 1.7 47% 76.28 1016.0
07 05:56 N 13 16.09 Fair CLR 10.6 1.7 54% 76.25 1015.7
07 04:56 W 7 16.09 Fair CLR 10 1.7 15.6 7.8 57% 9 76.25 1015.7
07 03:56 Calm 16.09 Fair CLR 8.9 1.7 61% 76.25 1015.7
07 02:56 NE 9 16.09 Fair CLR 10 1.1 54% 9 76.25 1015.5
07 01:56 N 20 16.09 Fair CLR 13.3 0.6 42% 76.25 1015.0
07 00:56 NE 11 16.09 Fair CLR 13.3 0 40% 76.25 1015.3
06 23:56 NE 11 16.09 Fair CLR 13.3 0.6 42% 76.25 1015.5
06 22:56 NW 13 16.09 Fair CLR 15 1.1 25 13.9 39% 76.25 1015.4
06 21:56 N 19 16.09 Fair CLR 16.1 1.1 36% 76.23 1015.4
06 20:56 NW 15 16.09 Fair CLR 18.9 1.7 32% 76.2 1015.2
06 19:56 N 15 16.09 Fair CLR 20 2.8 32% 76.15 1014.7
06 18:56 NW 26 G 43 16.09 Fair CLR 22.2 2.2 27% 76.12 1014.2
06 17:56 NW 30 G 37 16.09 Fair CLR 24.4 3.3 25% 25 76.1 1014.0
06 16:56 NW 24 16.09 Fair CLR 24.4 8.9 27.2 21.7 37% 25 76.07 1013.6
06 15:56 NW 22 16.09 Fair CLR 26.7 5.6 26% 26 76.07 1013.2
06 14:56 Vrbl 7 16.09 Fair CLR 26.1 8.3 32% 26 76.1 1013.5
06 13:56 SE 20 16.09 Fair CLR 26.1 7.8 31% 26 76.12 1014.1
06 12:56 S 19 16.09 Fair CLR 24.4 6.7 32% 25 76.17 1014.9
06 11:56 S 22 G 31 16.09 Fair CLR 22.8 6.7 35% 76.25 1015.8
06 10:56 S 17 16.09 Fair CLR 21.7 6.1 21.7 6.1 36% 76.28 1016.3
06 09:56 SE 13 16.09 Fair CLR 19.4 7.8 47% 76.3 1016.4
06 08:56 E 6 16.09 Fair CLR 15 6.7 58% 76.33 1017.0
06 07:56 Calm 16.09 Fair CLR 11.7 6.1 69% 76.33 1017.1
06 06:56 Calm 16.09 Fair CLR 8.3 5.6 83% 76.3 1016.9
06 05:56 NW 7 16.09 Fair CLR 6.7 4.4 85% 6 76.28 1016.5
06 04:56 S 9 16.09 Fair CLR 6.1 4.4 13.9 6.1 89% 4 76.23 1015.8
06 03:56 Calm 16.09 Fair CLR 7.2 5 86% 76.23 1015.5
06 02:56 SE 7 16.09 Fair CLR 8.9 5 77% 8 76.17 1014.9
06 01:56 E 7 16.09 Fair CLR 7.8 5.6 86% 7 76.17 1014.7
06 00:56 E 6 16.09 Fair CLR 8.9 6.1 83% 76.12 1014.2
05 23:56 W 11 16.09 Fair CLR 12.8 7.2 69% 76.1 1013.6
05 22:56 N 15 16.09 Fair CLR 11.7 7.2 24.4 11.7 74% 76.05 1013.2
05 21:56 Vrbl 7 16.09 Fair CLR 15.6 6.7 56% 76.02 1012.6
05 20:56 NW 15 16.09 Fair CLR 15.6 7.2 58% 76 1012.6
05 19:56 NW 20 16.09 Fair CLR 18.3 6.1 45% 75.95 1011.8
05 18:56 NW 20 16.09 Fair CLR 21.1 5.6 37% 75.9 1011.1
05 17:56 NW 26 16.09 Fair CLR 23.3 3.3 27% 75.87 1010.8
05 16:56 NW 26 G 35 16.09 Fair CLR 24.4 3.3 25 21.7 25% 25 75.84 1010.5
05 15:56 NW 26 16.09 A Few Clouds FEW080 25 6.7 31% 25 75.84 1010.5
05 14:56 N 22 16.09 Fair CLR 23.9 5.6 31% 25 75.87 1010.6
05 13:56 NW 13 16.09 Partly Cloudy SCT075 25 7.2 32% 25 75.87 1010.5
05 12:56 NW 11 16.09 A Few Clouds FEW060 23.9 7.2 34% 25 75.9 1010.6
05 11:56 Calm 16.09 A Few Clouds FEW060 22.8 8.3 40% 75.92 1011.2
05 10:56 W 11 16.09 Fair CLR 21.7 8.3 21.7 5.6 42% 75.92 1011.0
Date Time (pdt) Wind (kph) Vis. (km) Weather Sky Cond. Air Dwpt Max. Min. Relative Humidity Wind Chill (°C) Heat Index (°C) altimeter (cm) sea level (mb) 1 hr 3 hr 6 hr
6 hour
Temperature (ºC) Pressure Precipitation (cm)